KLGA/LGA METAR and TAF weather

Enter ICAO airport designator
Station Type Date Time Source
KLGA METAR 2019/10/23 02:51 UTC NOAA

KLGA 230251Z 12014KT 3SM -RA BR BKN006 BKN012 OVC027 17/16 A2981 RMK AO2 SFC VIS 4 SLP094 P0006 60023 T01670156 56032 $


Station Type Date Time Source
KLGA Decoded METAR 2019/10/23 02:51 UTC NOAA

NEW YORK LA GUARDIA AIRPORT , NY, United States (KLGA) 40-47N 73-53W 11M
Oct 22, 2019 - 10:51 PM EDT / 2019.10.23 0251 UTC
Wind: from the ESE (120 degrees) at 16 MPH (14 KT):0
Visibility: 3 mile(s):0
Sky conditions: overcast
Weather: light rain; mist
Precipitation last hour: 0.06 inches
Temperature: 62.1 F (16.7 C)
Dew Point: 60.1 F (15.6 C)
Relative Humidity: 93%
Pressure (altimeter): 29.81 in. Hg (1009 hPa)
Pressure tendency: 0.09 inches (3.2 hPa) lower than three hours ago
ob: KLGA 230251Z 12014KT 3SM -RA BR BKN006 BKN012 OVC027 17/16 A2981 RMK AO2 SFC VIS 4 SLP094 P0006 60023 T01670156 56032
cycle: 3

Station Type Date Time Source
KLGA TAF 2019/10/23 03:36 UTC NOAA

TAF
AMD KLGA 230233Z 2303/2406 10010KT 3SM -RA OVC005
TEMPO 2303/2307 13006KT 1SM -RA BR OVC003
FM230700 23008KT 4SM -RA BR OVC006
FM230900 30010KT 5SM BR BKN025 OVC035
FM231200 29012G17KT P6SM SCT025 SCT250
FM231500 28015G23KT P6SM FEW250
FM232200 27011KT P6SM FEW250

Example: see airport list